createdAt,value
2019-04-14T00:00:35.979Z,-21293.06
2019-04-14T00:03:06.611Z,-21327.23
2019-04-14T00:05:35.919Z,-21314.53
2019-04-14T00:08:05.187Z,-21298.43
2019-04-14T00:10:33.637Z,-21413.97
2019-04-14T00:13:02.529Z,-21411.02
2019-04-14T00:15:38.865Z,-21402.17
2019-04-14T00:18:01.057Z,-21353.88
2019-04-14T00:20:29.405Z,-21363.61
2019-04-14T00:22:57.734Z,-21354.87
2019-04-14T00:25:26.231Z,-21373.18
2019-04-14T00:27:54.661Z,-21345.71
2019-04-14T00:30:23.670Z,-21344.44
2019-04-14T00:32:57.415Z,-21312.98
2019-04-14T00:35:30.045Z,-21335.13
2019-04-14T00:38:17.248Z,-21371.49
2019-04-14T00:40:53.910Z,-21382.05
2019-04-14T00:43:24.467Z,-21359.10
2019-04-14T00:45:56.816Z,-21378.25
2019-04-14T00:48:26.163Z,-21390.63
2019-04-14T00:50:54.470Z,-21373.75
2019-04-14T00:53:22.928Z,-21342.32
2019-04-14T00:55:51.380Z,-21357.83
2019-04-14T00:58:19.637Z,-21341.34
2019-04-14T01:00:47.968Z,-21362.34
2019-04-14T01:03:16.248Z,-21339.50
2019-04-14T01:05:45.787Z,-21334.85
2019-04-14T01:08:14.306Z,-21329.77
2019-04-14T01:10:43.293Z,-21335.98
2019-04-14T01:13:12.779Z,-21369.38
2019-04-14T01:15:53.665Z,-21357.83
2019-04-14T01:18:12.546Z,-21334.00
2019-04-14T01:20:40.990Z,-21340.77
2019-04-14T01:23:10.518Z,-21337.39
2019-04-14T01:25:39.038Z,-21354.17
2019-04-14T01:28:07.280Z,-21419.59
2019-04-14T01:30:35.540Z,-21402.45
2019-04-14T01:33:03.968Z,-21400.63
2019-04-14T01:35:33.446Z,-21387.68
2019-04-14T01:38:01.884Z,-21385.29
2019-04-14T01:40:31.333Z,-21377.41
2019-04-14T01:42:59.795Z,-21380.36
2019-04-14T01:45:28.154Z,-21363.89
2019-04-14T01:47:57.489Z,-21355.58
2019-04-14T01:50:36.615Z,-21387.96
2019-04-14T01:53:07.553Z,-21350.78
2019-04-14T01:55:46.515Z,-21376.85
2019-04-14T01:58:16.479Z,-21382.19
2019-04-14T02:01:02.229Z,-21379.94
2019-04-14T02:03:30.502Z,-21370.79
2019-04-14T02:05:58.763Z,-21395.84
2019-04-14T02:08:28.309Z,-21373.04
2019-04-14T02:10:56.661Z,-21374.31
2019-04-14T02:13:24.967Z,-21383.88
2019-04-14T02:15:53.232Z,-21369.80
2019-04-14T02:18:22.830Z,-21390.49
2019-04-14T02:20:51.304Z,-21395.55
2019-04-14T02:23:19.619Z,-21381.07
2019-04-14T02:25:49.248Z,-21399.07
2019-04-14T02:28:17.811Z,-21395.41
2019-04-14T02:30:56.787Z,-21383.74
2019-04-14T02:38:47.332Z,-21361.49
2019-04-14T02:41:24.626Z,-21376.85
2019-04-14T02:43:49.339Z,-21402.73
2019-04-14T02:46:16.996Z,-21370.93
2019-04-14T02:51:13.816Z,-21393.73
2019-04-14T02:56:16.445Z,-21399.50
2019-04-14T02:58:45.945Z,-21399.64
2019-04-14T03:01:14.713Z,-21375.44
2019-04-14T03:03:43.102Z,-21393.44
2019-04-14T03:06:12.615Z,-21385.85
2019-04-14T03:08:52.036Z,-21389.79
2019-04-14T03:11:11.760Z,-21359.94
2019-04-14T03:13:45.415Z,-21393.02
2019-04-14T03:16:19.762Z,-21356.00
2019-04-14T03:21:36.373Z,-21390.91
2019-04-14T03:24:12.739Z,-21370.08
2019-04-14T03:26:45.110Z,-21360.36
2019-04-14T03:29:21.710Z,-21386.13
2019-04-14T03:32:01.398Z,-21396.40
2019-04-14T03:39:15.309Z,-21380.78
2019-04-14T03:41:50.652Z,-21371.21
2019-04-14T03:44:25.282Z,-21392.88
2019-04-14T03:46:50.769Z,-21423.67
2019-04-14T03:51:50.262Z,-21363.75
2019-04-14T03:54:10.940Z,-21381.91
2019-04-14T03:56:48.933Z,-21403.71
2019-04-14T03:59:17.755Z,-21395.97
2019-04-14T04:01:47.757Z,-21350.78
2019-04-14T04:04:16.532Z,-21367.97
2019-04-14T04:06:44.887Z,-21378.25
2019-04-14T04:09:15.026Z,-21352.62
2019-04-14T04:11:43.515Z,-21352.05
2019-04-14T04:14:11.850Z,-21413.27
2019-04-14T04:16:44.201Z,-21398.79
2019-04-14T04:19:29.987Z,-21377.97
2019-04-14T04:21:59.901Z,-21383.04
2019-04-14T04:24:45.465Z,-21387.54
2019-04-14T04:27:15.796Z,-21387.25
2019-04-14T04:29:54.842Z,-21404.98
2019-04-14T04:32:25.425Z,-21380.78
2019-04-14T04:35:13.092Z,-21376.42
2019-04-14T04:37:52.129Z,-21365.30
2019-04-14T04:40:31.334Z,-21372.48
2019-04-14T04:42:59.611Z,-21380.22
2019-04-14T04:45:27.881Z,-21385.57
2019-04-14T04:47:56.275Z,-21386.83
2019-04-14T04:50:24.538Z,-21370.50
2019-04-14T04:52:53.921Z,-21363.75
2019-04-14T04:55:22.471Z,-21382.75
2019-04-14T04:57:50.749Z,-21360.09
2019-04-14T05:00:19.940Z,-21372.90
2019-04-14T05:02:48.535Z,-21363.18
2019-04-14T05:05:45.410Z,-21364.31
2019-04-14T05:08:13.693Z,-21355.44
2019-04-14T05:10:46.414Z,-21383.74
2019-04-14T05:13:16.124Z,-21378.25
2019-04-14T05:15:46.592Z,-21364.02
2019-04-14T05:18:16.191Z,-21376.70
2019-04-14T05:20:44.479Z,-21363.61
2019-04-14T05:23:12.769Z,-21363.18
2019-04-14T05:25:41.088Z,-21343.59
2019-04-14T05:28:09.385Z,-21369.09
2019-04-14T05:30:37.660Z,-21382.90
2019-04-14T05:33:05.917Z,-21386.69
2019-04-14T05:35:34.216Z,-21387.82
2019-04-14T05:38:02.505Z,-21368.96
2019-04-14T05:40:32.149Z,-21353.32
2019-04-14T05:43:00.757Z,-21351.49
2019-04-14T05:45:29.162Z,-21356.00
2019-04-14T05:47:57.472Z,-21359.24
2019-04-14T05:50:27.124Z,-21366.98
2019-04-14T05:52:55.805Z,-21389.93
2019-04-14T05:55:24.259Z,-21396.12
2019-04-14T05:57:52.673Z,-21390.49
2019-04-14T06:00:21.288Z,-21385.14
2019-04-14T06:02:50.618Z,-21388.24
2019-04-14T06:05:19.093Z,-21381.35
2019-04-14T06:07:47.379Z,-21389.93
2019-04-14T06:10:16.032Z,-21372.48
2019-04-14T06:12:44.316Z,-21379.66
2019-04-14T06:15:12.858Z,-21364.17
2019-04-14T06:17:41.234Z,-21361.35
2019-04-14T06:20:09.776Z,-21358.54
2019-04-14T06:22:38.070Z,-21367.27
2019-04-14T06:25:06.777Z,-21369.09
2019-04-14T06:27:36.072Z,-21380.22
2019-04-14T06:30:08.449Z,-21349.52
2019-04-14T06:32:46.614Z,-21369.66
2019-04-14T06:35:22.066Z,-21373.61
2019-04-14T06:37:54.632Z,-21385.01
2019-04-14T06:40:24.539Z,-21381.35
2019-04-14T06:42:52.868Z,-21362.20
2019-04-14T06:45:21.124Z,-21359.24
2019-04-14T06:47:49.391Z,-21374.31
2019-04-14T06:50:17.655Z,-21374.03
2019-04-14T06:52:45.961Z,-21348.39
2019-04-14T06:55:14.219Z,-21383.32
2019-04-14T06:57:42.495Z,-21395.41
2019-04-14T07:00:11.028Z,-21399.92
2019-04-14T07:02:39.306Z,-21376.00
2019-04-14T07:05:07.668Z,-21402.17
2019-04-14T07:07:35.936Z,-21393.73
2019-04-14T07:10:05.444Z,-21372.90
2019-04-14T07:12:33.704Z,-21400.05
2019-04-14T07:15:02.010Z,-21382.19
2019-04-14T07:17:30.386Z,-21387.54
2019-04-14T07:20:02.190Z,-21394.29
2019-04-14T07:22:28.650Z,-21391.62
2019-04-14T07:24:56.909Z,-21379.94
2019-04-14T07:27:25.266Z,-21395.97
2019-04-14T07:30:01.160Z,-21422.69
2019-04-14T07:32:31.093Z,-21413.84
2019-04-14T07:35:09.633Z,-21414.25
2019-04-14T07:37:45.321Z,-21389.36
2019-04-14T07:40:21.198Z,-21414.11
2019-04-14T07:43:03.085Z,-21408.63
2019-04-14T07:45:38.996Z,-21430.27
2019-04-14T07:48:25.003Z,-21419.31
2019-04-14T07:51:11.135Z,-21394.43
2019-04-14T07:53:41.042Z,-21369.80
2019-04-14T07:56:26.826Z,-21366.98
2019-04-14T07:58:59.713Z,-21391.76
2019-04-14T08:01:29.628Z,-21412.85
2019-04-14T08:04:02.503Z,-21397.11
2019-04-14T08:06:31.738Z,-21409.76
2019-04-14T08:09:00.021Z,-21418.75
2019-04-14T08:11:28.301Z,-21440.51
2019-04-14T08:13:56.581Z,-21428.59
2019-04-14T08:16:24.854Z,-21431.67
2019-04-14T08:18:53.114Z,-21442.05
2019-04-14T08:21:21.396Z,-21416.08
2019-04-14T08:23:49.666Z,-21409.90
2019-04-14T08:26:17.933Z,-21401.04
2019-04-14T08:28:46.289Z,-21391.20
2019-04-14T08:31:14.550Z,-21407.51
2019-04-14T08:33:42.920Z,-21412.00
2019-04-14T08:36:11.188Z,-21401.89
2019-04-14T08:38:39.468Z,-21421.84
2019-04-14T08:41:07.756Z,-21443.60
2019-04-14T08:43:40.602Z,-21392.46
2019-04-14T08:46:19.273Z,-21392.60
2019-04-14T08:48:49.245Z,-21401.46
2019-04-14T08:51:19.179Z,-21407.09
2019-04-14T08:53:51.495Z,-21383.18
2019-04-14T08:56:37.749Z,-21387.82
2019-04-14T08:59:23.860Z,-21416.36
2019-04-14T09:02:09.548Z,-21444.87
2019-04-14T09:04:45.364Z,-21412.43
2019-04-14T09:07:18.267Z,-21429.85
2019-04-14T09:09:57.024Z,-21413.97
2019-04-14T09:12:26.945Z,-21409.05
2019-04-14T09:14:57.203Z,-21428.72
2019-04-14T09:17:26.659Z,-21429.99
2019-04-14T09:19:54.945Z,-21445.71
2019-04-14T09:22:23.224Z,-21414.54
2019-04-14T09:24:51.499Z,-21419.31
2019-04-14T09:27:19.778Z,-21421.56
2019-04-14T09:29:48.061Z,-21440.66
2019-04-14T09:32:16.505Z,-21443.32
2019-04-14T09:34:44.773Z,-21430.69
2019-04-14T09:37:13.063Z,-21446.13
2019-04-14T09:39:41.329Z,-21444.87
2019-04-14T09:42:09.616Z,-21456.65
2019-04-14T09:44:37.903Z,-21452.72
2019-04-14T09:47:06.158Z,-21447.95
2019-04-14T09:49:34.441Z,-21465.48
2019-04-14T09:52:02.780Z,-21470.95
2019-04-14T09:54:31.056Z,-21485.66
2019-04-14T09:56:59.332Z,-21477.25
2019-04-14T09:59:27.626Z,-21476.70
2019-04-14T10:01:56.319Z,-21465.06
2019-04-14T10:04:24.589Z,-21450.90
2019-04-14T10:06:52.855Z,-21468.29
2019-04-14T10:09:21.122Z,-21477.25
2019-04-14T10:11:52.532Z,-21472.77
2019-04-14T10:14:19.405Z,-21475.71
2019-04-14T10:16:47.729Z,-21471.65
2019-04-14T10:19:16.071Z,-21478.79
2019-04-14T10:21:44.400Z,-21463.23
2019-04-14T10:24:12.630Z,-21484.68
2019-04-14T10:26:41.238Z,-21489.86
2019-04-14T10:29:09.511Z,-21467.86
2019-04-14T10:31:37.787Z,-21471.09
2019-04-14T10:34:06.070Z,-21462.40
2019-04-14T10:36:34.347Z,-21491.68
2019-04-14T10:39:03.731Z,-21513.09
2019-04-14T10:41:31.977Z,-21501.89
2019-04-14T10:44:00.316Z,-21483.14
2019-04-14T10:46:28.586Z,-21506.23
2019-04-14T10:48:56.884Z,-21487.76
2019-04-14T10:51:30.384Z,-21506.51
2019-04-14T10:53:55.157Z,-21512.53
2019-04-14T10:56:23.459Z,-21539.64
2019-04-14T10:58:51.737Z,-21525.94
2019-04-14T11:01:20.024Z,-21534.46
2019-04-14T11:03:48.318Z,-21535.73
2019-04-14T11:06:26.721Z,-21554.85
2019-04-14T11:08:54.987Z,-21540.19
2019-04-14T11:11:23.245Z,-21442.34
2019-04-14T11:13:51.510Z,-21453.00
2019-04-14T11:16:19.772Z,-21506.23
2019-04-14T11:18:48.055Z,-21554.57
2019-04-14T11:21:16.610Z,-21559.17
2019-04-14T11:23:44.912Z,-21507.35
2019-04-14T11:26:13.186Z,-21520.35
2019-04-14T11:28:41.538Z,-21588.03
2019-04-14T11:31:10.182Z,-21573.82
2019-04-14T11:33:56.234Z,-21556.66
2019-04-14T11:36:42.211Z,-21603.63
2019-04-14T11:39:12.362Z,-21589.70
2019-04-14T11:41:40.704Z,-21583.29
2019-04-14T11:44:09.169Z,-21564.19
2019-04-14T11:46:37.507Z,-21570.34
2019-04-14T11:49:05.883Z,-21617.39
2019-04-14T11:51:34.220Z,-21630.05
2019-04-14T11:54:02.479Z,-21613.78
2019-04-14T11:56:30.766Z,-21621.85
2019-04-14T11:58:59.012Z,-21666.14
2019-04-14T12:01:45.429Z,-21616.14
2019-04-14T12:04:21.482Z,-21620.04
2019-04-14T12:07:07.786Z,-21592.21
2019-04-14T12:09:37.715Z,-21609.05
2019-04-14T12:12:07.619Z,-21593.46
2019-04-14T12:14:35.884Z,-21639.22
2019-04-14T12:17:04.182Z,-21721.81
2019-04-14T12:19:32.450Z,-21713.10
2019-04-14T12:22:08.312Z,-21726.09
2019-04-14T12:24:30.751Z,-21684.44
2019-04-14T12:26:59.020Z,-21695.25
2019-04-14T12:29:28.259Z,-21729.13
2019-04-14T12:31:57.450Z,-21770.68
2019-04-14T12:34:25.829Z,-21733.98
2019-04-14T12:36:54.103Z,-21732.87
2019-04-14T12:39:23.804Z,-21776.75
2019-04-14T12:41:59.988Z,-21705.90
2019-04-14T12:44:32.686Z,-21717.80
2019-04-14T12:47:02.588Z,-21734.53
2019-04-14T12:49:38.659Z,-21749.16
2019-04-14T12:52:21.640Z,-21769.99
2019-04-14T12:54:47.625Z,-21790.52
2019-04-14T12:57:17.523Z,-21781.43
2019-04-14T12:59:45.862Z,-21763.37
2019-04-14T13:02:15.768Z,-21810.33
2019-04-14T13:04:44.047Z,-21758.41
2019-04-14T13:07:12.386Z,-21708.67
2019-04-14T13:09:40.683Z,-21760.48
2019-04-14T13:12:10.468Z,-21649.77
2019-04-14T13:14:38.861Z,-21634.77
2019-04-14T13:17:07.139Z,-21697.32
2019-04-14T13:19:35.416Z,-21797.68
2019-04-14T13:22:03.692Z,-21833.70
2019-04-14T13:24:31.983Z,-21807.86
2019-04-14T13:27:00.253Z,-21747.09
2019-04-14T13:29:28.535Z,-21811.16
2019-04-14T13:31:56.807Z,-21746.96
2019-04-14T13:34:25.088Z,-21752.34
2019-04-14T13:36:53.379Z,-21850.44
2019-04-14T13:39:21.656Z,-21881.42
2019-04-14T13:41:49.925Z,-21822.98
2019-04-14T13:44:18.222Z,-21819.14
2019-04-14T13:46:46.477Z,-21877.86
2019-04-14T13:49:14.763Z,-21864.43
2019-04-14T13:51:43.026Z,-21769.03
2019-04-14T13:54:11.319Z,-21836.31
2019-04-14T13:56:39.594Z,-21765.44
2019-04-14T13:59:07.859Z,-21791.76
2019-04-14T14:01:36.148Z,-21862.10
2019-04-14T14:04:04.562Z,-21836.58
2019-04-14T14:06:32.823Z,-21704.80
2019-04-14T14:09:01.106Z,-21756.48
2019-04-14T14:11:32.440Z,-21819.27
2019-04-14T14:14:02.538Z,-21744.74
2019-04-14T14:16:41.097Z,-21768.89
2019-04-14T14:19:13.446Z,-21789.15
2019-04-14T14:21:52.345Z,-21759.64
2019-04-14T14:27:09.976Z,-21780.20
2019-04-14T14:29:38.261Z,-21757.99
2019-04-14T14:32:08.249Z,-21736.60
2019-04-14T14:34:36.528Z,-21760.06
2019-04-14T14:37:04.793Z,-21734.11
2019-04-14T14:39:33.463Z,-21734.66
2019-04-14T14:42:01.754Z,-21714.20
2019-04-14T14:44:31.687Z,-21723.19
2019-04-14T14:47:01.596Z,-21736.60
2019-04-14T14:49:49.889Z,-21673.49
2019-04-14T14:52:21.872Z,-21698.70
2019-04-14T14:54:50.138Z,-21708.39
2019-04-14T14:57:18.417Z,-21673.22
2019-04-14T14:59:46.702Z,-21714.34
2019-04-14T15:02:14.983Z,-21641.44
2019-04-14T15:04:43.253Z,-21685.69
2019-04-14T15:07:11.532Z,-21694.00
2019-04-14T15:09:39.885Z,-21686.11
2019-04-14T15:12:08.163Z,-21672.66
2019-04-14T15:14:36.442Z,-21653.93
2019-04-14T15:17:08.300Z,-21700.09
2019-04-14T15:19:35.616Z,-21672.66
2019-04-14T15:22:04.155Z,-21704.25
2019-04-14T15:24:37.299Z,-21707.15
2019-04-14T15:27:05.654Z,-21748.06
2019-04-14T15:29:33.918Z,-21736.60
2019-04-14T15:32:02.195Z,-21695.11
2019-04-14T15:34:30.469Z,-21667.39
2019-04-14T15:36:58.938Z,-21645.19
2019-04-14T15:39:27.277Z,-21698.57
2019-04-14T15:41:55.524Z,-21763.93
2019-04-14T15:44:23.839Z,-21753.58
2019-04-14T15:46:52.098Z,-21710.75
2019-04-14T15:49:20.400Z,-21712.68
2019-04-14T15:51:48.665Z,-21715.72
2019-04-14T15:54:16.934Z,-21739.36
2019-04-14T15:57:04.813Z,-21716.70
2019-04-14T15:59:42.291Z,-21776.47
2019-04-14T16:02:12.210Z,-21752.20
2019-04-14T16:04:50.854Z,-21727.89
2019-04-14T16:07:26.285Z,-21782.53
2019-04-14T16:10:01.726Z,-21797.13
2019-04-14T16:12:34.169Z,-21796.58
2019-04-14T16:15:06.738Z,-21790.38
2019-04-14T16:17:39.587Z,-21779.64
2019-04-14T16:20:09.726Z,-21774.68
2019-04-14T16:22:39.059Z,-21801.12
2019-04-14T16:25:07.626Z,-21744.74
2019-04-14T16:27:37.612Z,-21638.80
2019-04-14T16:30:07.804Z,-21651.43
2019-04-14T16:32:52.918Z,-21697.60
2019-04-14T16:35:22.863Z,-21657.13
2019-04-14T16:37:51.137Z,-21586.22
2019-04-14T16:40:19.518Z,-21569.63
2019-04-14T16:42:47.771Z,-21581.62
2019-04-14T16:45:17.602Z,-21611.42
2019-04-14T16:47:45.862Z,-21627.55
2019-04-14T16:50:14.210Z,-21613.50
2019-04-14T16:52:47.144Z,-21574.65
2019-04-14T16:55:17.103Z,-21564.05
2019-04-14T16:57:49.965Z,-21560.85
2019-04-14T17:02:56.825Z,-21554.71
2019-04-14T17:05:25.087Z,-21521.19
2019-04-14T17:07:53.778Z,-21534.89
2019-04-14T17:10:22.319Z,-21472.63
2019-04-14T17:12:55.536Z,-21528.04
2019-04-14T17:15:40.468Z,-21506.51
2019-04-14T17:18:28.547Z,-21540.61
2019-04-14T17:21:14.585Z,-21503.71
2019-04-14T17:23:47.342Z,-21502.03
2019-04-14T17:26:35.310Z,-21501.89
2019-04-14T17:29:10.960Z,-21500.91
2019-04-14T17:31:58.739Z,-21482.58
2019-04-14T17:34:31.470Z,-21454.55
2019-04-14T17:37:10.203Z,-21468.01
2019-04-14T17:39:40.067Z,-21486.21
2019-04-14T17:42:28.308Z,-21479.35
2019-04-14T17:45:04.191Z,-21467.17
2019-04-14T17:47:40.113Z,-21479.35
2019-04-14T17:50:10.173Z,-21482.43
2019-04-14T17:52:42.977Z,-21438.27
2019-04-14T17:55:12.889Z,-21450.76
2019-04-14T17:57:58.968Z,-21456.51
2019-04-14T18:00:31.833Z,-21443.18
2019-04-14T18:03:04.161Z,-21467.03
2019-04-14T18:05:49.946Z,-21466.18
2019-04-14T18:08:28.411Z,-21463.94
2019-04-14T18:11:06.978Z,-21483.41
2019-04-14T18:13:36.998Z,-21448.65
2019-04-14T18:16:23.456Z,-21461.55
2019-04-14T18:19:02.388Z,-21487.62
2019-04-14T18:21:30.649Z,-21479.64
2019-04-14T18:23:59.060Z,-21490.98
2019-04-14T18:26:27.314Z,-21491.26
2019-04-14T18:28:59.914Z,-21468.29
2019-04-14T18:31:32.892Z,-21493.92
2019-04-14T18:34:12.492Z,-21486.91
2019-04-14T18:37:00.503Z,-21485.80
2019-04-14T18:39:42.717Z,-21484.53
2019-04-14T18:45:12.585Z,-21462.54
2019-04-14T18:47:51.472Z,-21449.78
2019-04-14T18:50:37.819Z,-21450.48
2019-04-14T18:53:07.779Z,-21427.18
2019-04-14T18:55:47.001Z,-21444.31
2019-04-14T18:58:33.276Z,-21446.70
2019-04-14T19:01:18.859Z,-21458.89
2019-04-14T19:03:47.917Z,-21456.51
2019-04-14T19:06:16.168Z,-21456.23
2019-04-14T19:08:44.835Z,-21468.71
2019-04-14T19:11:15.170Z,-21453.70
2019-04-14T19:13:45.262Z,-21449.64
2019-04-14T19:16:15.292Z,-21445.57
2019-04-14T19:18:45.210Z,-21445.43
2019-04-14T19:21:15.169Z,-21447.67
2019-04-14T19:23:46.303Z,-21440.51
2019-04-14T19:26:13.562Z,-21451.46
2019-04-14T19:28:41.839Z,-21454.97
2019-04-14T19:31:10.238Z,-21464.21
2019-04-14T19:33:38.501Z,-21454.13
2019-04-14T19:36:06.788Z,-21477.81
2019-04-14T19:38:35.048Z,-21469.13
2019-04-14T19:41:03.328Z,-21460.86
2019-04-14T19:43:31.607Z,-21428.59
2019-04-14T19:45:59.883Z,-21424.09
2019-04-14T19:48:28.212Z,-21400.48
2019-04-14T19:50:56.656Z,-21429.14
2019-04-14T19:53:24.952Z,-21437.57
2019-04-14T19:55:53.254Z,-21435.04
2019-04-14T19:58:21.572Z,-21425.50
2019-04-14T20:00:49.887Z,-21438.41
2019-04-14T20:03:18.148Z,-21414.25
2019-04-14T20:05:46.409Z,-21411.72
2019-04-14T20:08:14.703Z,-21415.80
2019-04-14T20:10:42.988Z,-21423.95
2019-04-14T20:13:11.230Z,-21429.57
2019-04-14T20:15:57.318Z,-21428.86
2019-04-14T20:18:43.403Z,-21424.09
2019-04-14T20:21:29.742Z,-21428.86
2019-04-14T20:24:08.557Z,-21418.05
2019-04-14T20:26:38.475Z,-21418.19
2019-04-14T20:29:10.854Z,-21421.28
2019-04-14T20:31:40.766Z,-21418.75
2019-04-14T20:34:09.049Z,-21412.99
2019-04-14T20:36:37.338Z,-21389.65
2019-04-14T20:39:09.284Z,-21408.35
2019-04-14T20:41:37.631Z,-21411.16
2019-04-14T20:44:05.908Z,-21415.94
2019-04-14T20:46:34.168Z,-21417.20
2019-04-14T20:49:02.463Z,-21399.07
2019-04-14T20:51:30.734Z,-21429.57
2019-04-14T20:53:59.064Z,-21435.88
2019-04-14T20:56:27.533Z,-21429.43
2019-04-14T20:58:55.790Z,-21429.71
2019-04-14T21:01:25.736Z,-21433.22
2019-04-14T21:04:12.028Z,-21416.22
2019-04-14T21:06:44.790Z,-21438.27
2019-04-14T21:09:14.707Z,-21406.66
2019-04-14T21:11:53.811Z,-21423.81
2019-04-14T21:14:40.084Z,-21418.89
2019-04-14T21:17:10.087Z,-21419.88
2019-04-14T21:19:45.956Z,-21429.43
2019-04-14T21:22:21.821Z,-21420.15
2019-04-14T21:24:51.759Z,-21431.54
2019-04-14T21:27:21.646Z,-21433.08
2019-04-14T21:29:51.664Z,-21417.63
2019-04-14T21:32:21.602Z,-21425.77
2019-04-14T21:35:03.575Z,-21427.88
2019-04-14T21:37:42.410Z,-21414.11
2019-04-14T21:40:17.909Z,-21423.67
2019-04-14T21:42:46.306Z,-21440.93
2019-04-14T21:45:14.660Z,-21425.64
2019-04-14T21:47:42.928Z,-21440.66
2019-04-14T21:50:11.568Z,-21431.95
2019-04-14T21:52:49.648Z,-21423.67
2019-04-14T21:55:17.174Z,-21403.29
2019-04-14T21:57:47.089Z,-21425.64
2019-04-14T22:00:35.069Z,-21434.62
2019-04-14T22:03:19.831Z,-21432.09
2019-04-14T22:05:52.695Z,-21409.76
2019-04-14T22:08:28.668Z,-21412.85
2019-04-14T22:10:58.575Z,-21405.82
2019-04-14T22:13:26.890Z,-21419.45
2019-04-14T22:15:55.157Z,-21431.67
2019-04-14T22:18:23.410Z,-21412.29
2019-04-14T22:20:51.738Z,-21407.51
2019-04-14T22:23:19.938Z,-21416.36
2019-04-14T22:25:48.224Z,-21408.07
2019-04-14T22:28:16.492Z,-21415.38
2019-04-14T22:30:44.750Z,-21419.73
2019-04-14T22:33:13.021Z,-21410.46
2019-04-14T22:35:41.287Z,-21391.48
2019-04-14T22:38:09.572Z,-21388.52
2019-04-14T22:40:37.867Z,-21423.53
2019-04-14T22:43:06.086Z,-21398.37
2019-04-14T22:45:34.994Z,-21433.92
2019-04-14T22:48:03.245Z,-21445.15
2019-04-14T22:50:31.553Z,-21414.54
2019-04-14T22:52:59.866Z,-21401.46
2019-04-14T22:55:28.129Z,-21384.16
2019-04-14T22:57:56.447Z,-21385.01
2019-04-14T23:00:26.780Z,-21368.68
2019-04-14T23:03:02.123Z,-21384.45
2019-04-14T23:05:49.802Z,-21390.91
2019-04-14T23:08:19.706Z,-21399.92
2019-04-14T23:11:05.666Z,-21378.96
2019-04-14T23:13:47.518Z,-21404.55
2019-04-14T23:16:26.093Z,-21393.73
2019-04-14T23:19:01.879Z,-21391.34
2019-04-14T23:21:31.777Z,-21394.85
2019-04-14T23:24:07.408Z,-21393.44
2019-04-14T23:26:35.664Z,-21397.95
2019-04-14T23:29:03.932Z,-21402.17
2019-04-14T23:31:32.183Z,-21388.24
2019-04-14T23:34:00.454Z,-21391.90
2019-04-14T23:36:28.728Z,-21395.55
2019-04-14T23:38:56.992Z,-21378.11
2019-04-14T23:41:25.330Z,-21376.70
2019-04-14T23:43:54.020Z,-21386.55
2019-04-14T23:46:22.258Z,-21381.77
2019-04-14T23:48:50.543Z,-21374.31
2019-04-14T23:51:18.810Z,-21375.86
2019-04-14T23:53:47.080Z,-21381.07
2019-04-14T23:56:15.336Z,-21384.45
2019-04-14T23:58:43.599Z,-21393.73
